Impacts METAR Board
IDs:

KSAN - San Diego Intl Arpt, CA, US

Updated at: 1200 UTC 15 Dec 2018
Potential Impact None Slight Moderate High
Time 15/00Z 15/01Z 15/02Z 15/03Z 15/04Z 15/05Z 15/06Z 15/07Z 15/08Z 15/09Z 15/10Z 15/11Z 15/12Z
Temp65 64 64 62 61 61 61 62 59 59 59 58 57
Dewpt45 43 42 43 45 45 43 39 43 41 44 47 46
Altim30.12 30.13 30.11 30.12 30.14 30.15 30.15 30.12 30.10 30.09 30.08 30.08 30.09
VIS10 10 10 10 10 10 10 10 10 10 10 10 10
CIG170 170 170 180 180 180 170 160 170 160 170 150 150
CoverOVCOVCBKNBKNBKNBKNBKNOVCOVCOVCOVCOVCBKN
FltCatVFRVFRVFRVFRVFRVFRVFRVFRVFRVFRVFRVFRVFR
WX--------------------------
WDir340360303500034002802010010
WSpd4 3 3 4 0 0 3 0 5 4 5 0 3
WGst-- -- -- -- -- -- -- -- -- -- -- -- --
Raw hourly METARs
KSAN 142351Z 34004KT 10SM BKN170 OVC250 18/07 A3012 RMK AO2 SLP200 T01830072 10183 20128 53000
KSAN 150051Z 36003KT 10SM BKN170 OVC250 18/06 A3013 RMK AO2 SLP201 T01780061
KSAN 150151Z 03003KT 10SM BKN170 BKN250 18/06 A3011 RMK AO2 SLP197 T01780056
KSAN 150251Z 35004KT 10SM BKN180 BKN240 17/06 A3012 RMK AO2 SLP200 T01670061 53001
KSAN 150351Z 00000KT 10SM BKN180 BKN250 16/07 A3014 RMK AO2 SLP207 T01610072
KSAN 150451Z 00000KT 10SM BKN180 BKN250 16/07 A3015 RMK AO2 SLP210 T01610072
KSAN 150551Z 34003KT 10SM BKN170 BKN250 16/06 A3015 RMK AO2 SLP208 T01610061 10183 20156 50008
KSAN 150651Z 00000KT 10SM BKN160 OVC200 17/04 A3012 RMK AO2 SLP199 T01670039
KSAN 150751Z 28005KT 10SM BKN170 OVC220 15/06 A3010 RMK AO2 SLP192 T01500061 401831172
KSAN 150851Z 02004KT 10SM BKN160 OVC220 15/05 A3009 RMK AO2 SLP188 T01500050 56020
KSAN 150951Z 01005KT 10SM OVC170 15/07 A3008 RMK AO2 SLP185 T01500067
KSAN 151051Z 00000KT 10SM BKN150 OVC220 14/08 A3008 RMK AO2 SLP186 T01440083
KSAN 151151Z 01003KT 10SM BKN150 BKN220 14/08 A3009 RMK AO2 SLP188 T01390078 10167 20139 55000



Page loaded:  12:18 UTC  |   04:18 AM Pacific  |   05:18 AM Mountain  |   06:18 AM Central  |   07:18 AM Eastern

 

ADVISORIES

FORECASTS

FORECASTS

OBSERVATIONS

USER TOOLS

ABOUT US